sensor_id;sensor_type;location;lat;lon;timestamp;pressure;altitude;pressure_sealevel;temperature;humidity
66385;BME280;53426;55.872;37.462;2023-01-25T00:00:18;100759.63;;;0.94;67.26
66385;BME280;53426;55.872;37.462;2023-01-25T00:02:44;100751.81;;;0.94;67.18
66385;BME280;53426;55.872;37.462;2023-01-25T00:05:10;100751.91;;;0.91;67.17
66385;BME280;53426;55.872;37.462;2023-01-25T00:07:37;100745.72;;;0.95;66.91
66385;BME280;53426;55.872;37.462;2023-01-25T00:10:04;100750.13;;;0.93;66.94
66385;BME280;53426;55.872;37.462;2023-01-25T00:12:30;100744.22;;;0.84;67.32
66385;BME280;53426;55.872;37.462;2023-01-25T00:14:56;100755.41;;;0.90;67.16
66385;BME280;53426;55.872;37.462;2023-01-25T00:17:22;100747.66;;;0.87;67.40
66385;BME280;53426;55.872;37.462;2023-01-25T00:19:48;100748.72;;;0.79;67.11
66385;BME280;53426;55.872;37.462;2023-01-25T00:22:13;100740.13;;;0.76;67.28
66385;BME280;53426;55.872;37.462;2023-01-25T00:24:39;100731.75;;;0.62;67.55
66385;BME280;53426;55.872;37.462;2023-01-25T00:27:05;100719.84;;;0.52;67.60
66385;BME280;53426;55.872;37.462;2023-01-25T00:29:31;100719.25;;;0.40;67.87
66385;BME280;53426;55.872;37.462;2023-01-25T00:39:35;100701.94;;;0.01;68.58
66385;BME280;53426;55.872;37.462;2023-01-25T00:42:01;100694.44;;;-0.11;68.77
66385;BME280;53426;55.872;37.462;2023-01-25T00:44:27;100698.03;;;-0.18;68.90
66385;BME280;53426;55.872;37.462;2023-01-25T00:46:52;100701.63;;;-0.22;69.44
66385;BME280;53426;55.872;37.462;2023-01-25T00:49:23;100686.28;;;-0.36;69.40
66385;BME280;53426;55.872;37.462;2023-01-25T00:51:51;100683.88;;;-0.45;69.43
66385;BME280;53426;55.872;37.462;2023-01-25T00:54:18;100686.63;;;-0.53;69.71
66385;BME280;53426;55.872;37.462;2023-01-25T00:56:44;100682.53;;;-0.64;70.14
66385;BME280;53426;55.872;37.462;2023-01-25T00:59:12;100680.00;;;-0.67;70.10
66385;BME280;53426;55.872;37.462;2023-01-25T01:01:42;100695.44;;;-0.60;70.48
66385;BME280;53426;55.872;37.462;2023-01-25T01:04:09;100702.22;;;-0.51;70.24
66385;BME280;53426;55.872;37.462;2023-01-25T01:06:37;100677.19;;;-0.58;70.23
66385;BME280;53426;55.872;37.462;2023-01-25T01:09:05;100692.44;;;-0.40;70.72
66385;BME280;53426;55.872;37.462;2023-01-25T01:11:31;100694.81;;;-0.29;70.52
66385;BME280;53426;55.872;37.462;2023-01-25T01:13:58;100691.03;;;-0.16;70.05
66385;BME280;53426;55.872;37.462;2023-01-25T01:16:24;100685.56;;;-0.04;69.86
66385;BME280;53426;55.872;37.462;2023-01-25T01:18:51;100689.75;;;0.03;69.62
66385;BME280;53426;55.872;37.462;2023-01-25T01:21:17;100672.28;;;0.08;69.75
66385;BME280;53426;55.872;37.462;2023-01-25T01:23:43;100669.53;;;0.14;69.35
66385;BME280;53426;55.872;37.462;2023-01-25T01:26:12;100651.31;;;0.14;69.22
66385;BME280;53426;55.872;37.462;2023-01-25T01:28:40;100659.88;;;0.19;69.07
66385;BME280;53426;55.872;37.462;2023-01-25T01:31:11;100657.13;;;0.24;68.72
66385;BME280;53426;55.872;37.462;2023-01-25T01:33:41;100656.97;;;0.31;69.01
66385;BME280;53426;55.872;37.462;2023-01-25T01:36:13;100656.16;;;0.28;68.28
66385;BME280;53426;55.872;37.462;2023-01-25T01:38:40;100659.09;;;0.16;67.47
66385;BME280;53426;55.872;37.462;2023-01-25T01:41:09;100655.47;;;0.21;67.57
66385;BME280;53426;55.872;37.462;2023-01-25T01:43:35;100618.34;;;0.13;67.54
66385;BME280;53426;55.872;37.462;2023-01-25T01:46:05;100649.06;;;0.34;67.73
66385;BME280;53426;55.872;37.462;2023-01-25T01:51:28;100643.72;;;0.39;67.88
66385;BME280;53426;55.872;37.462;2023-01-25T01:54:37;100621.44;;;0.27;67.04
66385;BME280;53426;55.872;37.462;2023-01-25T01:57:12;100639.50;;;0.35;66.67
66385;BME280;53426;55.872;37.462;2023-01-25T02:00:03;100642.00;;;0.39;66.70
66385;BME280;53426;55.872;37.462;2023-01-25T02:02:39;100634.41;;;0.30;65.81
66385;BME280;53426;55.872;37.462;2023-01-25T02:05:14;100635.13;;;0.37;65.90
66385;BME280;53426;55.872;37.462;2023-01-25T02:07:45;100630.22;;;0.25;65.81
66385;BME280;53426;55.872;37.462;2023-01-25T02:10:14;100632.63;;;0.32;65.96
66385;BME280;53426;55.872;37.462;2023-01-25T02:12:44;100639.78;;;0.24;65.80
66385;BME280;53426;55.872;37.462;2023-01-25T02:15:10;100642.34;;;0.26;65.80
66385;BME280;53426;55.872;37.462;2023-01-25T02:17:38;100651.00;;;0.26;65.73
66385;BME280;53426;55.872;37.462;2023-01-25T02:25:15;100652.34;;;0.43;65.17
66385;BME280;53426;55.872;37.462;2023-01-25T02:27:47;100645.41;;;0.43;65.12
66385;BME280;53426;55.872;37.462;2023-01-25T02:30:15;100652.06;;;0.53;64.82
66385;BME280;53426;55.872;37.462;2023-01-25T02:32:42;100648.41;;;0.60;64.77
66385;BME280;53426;55.872;37.462;2023-01-25T02:36:14;100645.91;;;0.56;64.61
66385;BME280;53426;55.872;37.462;2023-01-25T02:38:21;100655.59;;;0.51;64.81
66385;BME280;53426;55.872;37.462;2023-01-25T02:40:57;100660.66;;;0.57;64.52
66385;BME280;53426;55.872;37.462;2023-01-25T02:43:29;100659.91;;;0.53;64.59
66385;BME280;53426;55.872;37.462;2023-01-25T02:46:12;100658.81;;;0.60;64.24
66385;BME280;53426;55.872;37.462;2023-01-25T02:48:43;100662.28;;;0.61;64.38
66385;BME280;53426;55.872;37.462;2023-01-25T02:51:10;100664.97;;;0.58;64.17
66385;BME280;53426;55.872;37.462;2023-01-25T02:53:38;100660.91;;;0.48;64.66
66385;BME280;53426;55.872;37.462;2023-01-25T02:56:06;100653.13;;;0.46;65.03
66385;BME280;53426;55.872;37.462;2023-01-25T02:58:32;100652.97;;;0.52;64.96
66385;BME280;53426;55.872;37.462;2023-01-25T03:00:58;100649.34;;;0.58;64.89
66385;BME280;53426;55.872;37.462;2023-01-25T03:03:25;100655.44;;;0.57;64.78
66385;BME280;53426;55.872;37.462;2023-01-25T03:05:51;100653.56;;;0.63;64.86
66385;BME280;53426;55.872;37.462;2023-01-25T03:08:17;100644.78;;;0.66;64.91
66385;BME280;53426;55.872;37.462;2023-01-25T03:10:48;100635.56;;;0.54;65.30
66385;BME280;53426;55.872;37.462;2023-01-25T03:13:14;100626.09;;;0.50;65.44
66385;BME280;53426;55.872;37.462;2023-01-25T03:15:42;100626.94;;;0.51;65.47
66385;BME280;53426;55.872;37.462;2023-01-25T03:18:09;100631.84;;;0.63;65.57
66385;BME280;53426;55.872;37.462;2023-01-25T03:20:34;100617.09;;;0.62;65.16
66385;BME280;53426;55.872;37.462;2023-01-25T03:23:02;100628.69;;;0.50;65.80
66385;BME280;53426;55.872;37.462;2023-01-25T03:25:27;100617.34;;;0.53;65.52
66385;BME280;53426;55.872;37.462;2023-01-25T03:27:59;100624.22;;;0.55;65.37
66385;BME280;53426;55.872;37.462;2023-01-25T03:30:25;100624.59;;;0.41;65.73
66385;BME280;53426;55.872;37.462;2023-01-25T03:32:52;100621.03;;;0.44;65.89
66385;BME280;53426;55.872;37.462;2023-01-25T03:35:19;100610.66;;;0.43;65.98
66385;BME280;53426;55.872;37.462;2023-01-25T03:37:45;100626.94;;;0.51;65.86
66385;BME280;53426;55.872;37.462;2023-01-25T03:40:12;100618.31;;;0.49;65.74
66385;BME280;53426;55.872;37.462;2023-01-25T03:42:43;100627.16;;;0.43;65.71
66385;BME280;53426;55.872;37.462;2023-01-25T03:45:11;100632.53;;;0.35;66.11
66385;BME280;53426;55.872;37.462;2023-01-25T03:47:40;100635.78;;;0.45;65.82
66385;BME280;53426;55.872;37.462;2023-01-25T03:50:08;100630.41;;;0.51;66.06
66385;BME280;53426;55.872;37.462;2023-01-25T03:52:34;100612.94;;;0.55;65.50
66385;BME280;53426;55.872;37.462;2023-01-25T03:55:04;100621.41;;;0.63;65.17
66385;BME280;53426;55.872;37.462;2023-01-25T03:57:31;100599.81;;;0.59;65.10
66385;BME280;53426;55.872;37.462;2023-01-25T04:00:01;100608.66;;;0.52;65.51
66385;BME280;53426;55.872;37.462;2023-01-25T04:02:30;100611.25;;;0.54;65.17
66385;BME280;53426;55.872;37.462;2023-01-25T04:04:56;100610.66;;;0.43;65.69
66385;BME280;53426;55.872;37.462;2023-01-25T04:07:24;100613.31;;;0.41;65.63
66385;BME280;53426;55.872;37.462;2023-01-25T04:09:50;100606.19;;;0.48;65.85
66385;BME280;53426;55.872;37.462;2023-01-25T04:12:17;100616.81;;;0.38;66.18
66385;BME280;53426;55.872;37.462;2023-01-25T04:14:43;100605.03;;;0.25;65.81
66385;BME280;53426;55.872;37.462;2023-01-25T04:17:11;100611.63;;;0.38;65.96
66385;BME280;53426;55.872;37.462;2023-01-25T04:19:46;100614.81;;;0.50;65.97
66385;BME280;53426;55.872;37.462;2023-01-25T04:22:15;100615.94;;;0.39;66.09
66385;BME280;53426;55.872;37.462;2023-01-25T04:24:42;100608.22;;;0.36;65.96
66385;BME280;53426;55.872;37.462;2023-01-25T04:27:08;100627.44;;;0.32;66.22
66385;BME280;53426;55.872;37.462;2023-01-25T04:29:41;100624.81;;;0.32;66.40
66385;BME280;53426;55.872;37.462;2023-01-25T04:32:10;100612.69;;;0.31;66.27
66385;BME280;53426;55.872;37.462;2023-01-25T04:34:36;100622.88;;;0.40;66.14
66385;BME280;53426;55.872;37.462;2023-01-25T04:37:03;100612.75;;;0.28;66.47
66385;BME280;53426;55.872;37.462;2023-01-25T04:39:35;100627.56;;;0.26;66.95
66385;BME280;53426;55.872;37.462;2023-01-25T04:42:01;100622.41;;;0.23;66.42
66385;BME280;53426;55.872;37.462;2023-01-25T04:44:27;100596.69;;;0.11;66.12
66385;BME280;53426;55.872;37.462;2023-01-25T04:46:53;100633.38;;;0.37;65.87
66385;BME280;53426;55.872;37.462;2023-01-25T04:49:21;100635.16;;;0.35;66.29
66385;BME280;53426;55.872;37.462;2023-01-25T04:51:47;100606.41;;;0.05;66.13
66385;BME280;53426;55.872;37.462;2023-01-25T04:54:15;100606.25;;;0.11;66.21
66385;BME280;53426;55.872;37.462;2023-01-25T04:56:42;100614.00;;;0.12;66.05
66385;BME280;53426;55.872;37.462;2023-01-25T04:59:07;100616.34;;;0.23;65.73
66385;BME280;53426;55.872;37.462;2023-01-25T05:01:33;100606.25;;;0.11;65.94
66385;BME280;53426;55.872;37.462;2023-01-25T05:04:04;100632.66;;;0.31;65.91
66385;BME280;53426;55.872;37.462;2023-01-25T05:06:36;100622.97;;;0.36;65.96
66385;BME280;53426;55.872;37.462;2023-01-25T05:09:02;100628.81;;;0.46;65.69
66385;BME280;53426;55.872;37.462;2023-01-25T05:11:28;100631.25;;;0.52;65.81
66385;BME280;53426;55.872;37.462;2023-01-25T05:14:01;100624.28;;;0.54;65.57
66385;BME280;53426;55.872;37.462;2023-01-25T05:16:31;100632.16;;;0.51;65.20
66385;BME280;53426;55.872;37.462;2023-01-25T05:18:57;100626.06;;;0.52;64.97
66385;BME280;53426;55.872;37.462;2023-01-25T05:21:32;100632.09;;;0.54;65.53
66385;BME280;53426;55.872;37.462;2023-01-25T05:24:16;100620.81;;;0.53;65.21
66385;BME280;53426;55.872;37.462;2023-01-25T05:26:42;100626.78;;;0.57;64.73
66385;BME280;53426;55.872;37.462;2023-01-25T05:29:36;100625.88;;;0.59;64.56
66385;BME280;53426;55.872;37.462;2023-01-25T05:32:15;100651.00;;;0.60;64.73
66385;BME280;53426;55.872;37.462;2023-01-25T05:34:41;100637.59;;;0.41;64.88
66385;BME280;53426;55.872;37.462;2023-01-25T05:37:10;100630.56;;;0.45;64.62
66385;BME280;53426;55.872;37.462;2023-01-25T05:39:40;100620.22;;;0.42;65.21
66385;BME280;53426;55.872;37.462;2023-01-25T05:42:12;100624.44;;;0.48;64.87
66385;BME280;53426;55.872;37.462;2023-01-25T05:44:44;100610.44;;;0.50;65.14
66385;BME280;53426;55.872;37.462;2023-01-25T05:47:12;100611.47;;;0.45;64.66
66385;BME280;53426;55.872;37.462;2023-01-25T05:49:40;100609.84;;;0.40;64.70
66385;BME280;53426;55.872;37.462;2023-01-25T05:52:14;100603.75;;;0.40;64.93
66385;BME280;53426;55.872;37.462;2023-01-25T05:54:43;100608.22;;;0.36;65.28
66385;BME280;53426;55.872;37.462;2023-01-25T05:57:15;100600.38;;;0.38;64.88
66385;BME280;53426;55.872;37.462;2023-01-25T05:59:42;100597.06;;;0.31;65.46
66385;BME280;53426;55.872;37.462;2023-01-25T06:02:10;100627.03;;;0.48;64.81
66385;BME280;53426;55.872;37.462;2023-01-25T06:04:36;100608.06;;;0.43;65.06
66385;BME280;53426;55.872;37.462;2023-01-25T06:07:03;100622.84;;;0.42;65.27
66385;BME280;53426;55.872;37.462;2023-01-25T06:09:30;100624.13;;;0.24;65.18
66385;BME280;53426;55.872;37.462;2023-01-25T06:11:56;100623.16;;;0.28;65.39
66385;BME280;53426;55.872;37.462;2023-01-25T06:14:24;100613.72;;;0.24;65.60
66385;BME280;53426;55.872;37.462;2023-01-25T06:16:52;100595.91;;;0.08;65.24
66385;BME280;53426;55.872;37.462;2023-01-25T06:19:45;100614.47;;;0.29;65.38
66385;BME280;53426;55.872;37.462;2023-01-25T06:22:20;100621.09;;;0.43;65.28
66385;BME280;53426;55.872;37.462;2023-01-25T06:24:46;100614.06;;;0.45;65.23
66385;BME280;53426;55.872;37.462;2023-01-25T06:27:11;100620.88;;;0.50;64.82
66385;BME280;53426;55.872;37.462;2023-01-25T06:29:37;100600.28;;;0.41;65.15
66385;BME280;53426;55.872;37.462;2023-01-25T06:32:03;100628.66;;;0.52;64.90
66385;BME280;53426;55.872;37.462;2023-01-25T06:34:29;100625.22;;;0.50;64.66
66385;BME280;53426;55.872;37.462;2023-01-25T06:36:56;100625.50;;;0.39;64.99
66385;BME280;53426;55.872;37.462;2023-01-25T06:39:22;100612.84;;;0.25;64.88
66385;BME280;53426;55.872;37.462;2023-01-25T06:41:48;100610.13;;;0.28;65.37
66385;BME280;53426;55.872;37.462;2023-01-25T06:44:14;100633.38;;;0.37;64.89
66385;BME280;53426;55.872;37.462;2023-01-25T06:46:41;100623.00;;;0.34;65.12
66385;BME280;53426;55.872;37.462;2023-01-25T06:49:09;100613.72;;;0.24;64.73
66385;BME280;53426;55.872;37.462;2023-01-25T06:51:35;100636.94;;;0.33;64.92
66385;BME280;53426;55.872;37.462;2023-01-25T06:54:04;100634.41;;;0.30;64.73
66385;BME280;53426;55.872;37.462;2023-01-25T06:56:30;100629.06;;;0.36;64.52
66385;BME280;53426;55.872;37.462;2023-01-25T06:58:57;100631.72;;;0.33;64.16
66385;BME280;53426;55.872;37.462;2023-01-25T07:01:23;100630.13;;;0.28;64.29
66385;BME280;53426;55.872;37.462;2023-01-25T07:03:53;100635.25;;;0.32;64.49
66385;BME280;53426;55.872;37.462;2023-01-25T07:06:20;100627.25;;;0.38;64.55
66385;BME280;53426;55.872;37.462;2023-01-25T07:08:46;100627.03;;;0.48;64.38
66385;BME280;53426;55.872;37.462;2023-01-25T07:11:13;100625.31;;;0.47;64.19
66385;BME280;53426;55.872;37.462;2023-01-25T07:13:40;100624.13;;;0.60;64.20
66385;BME280;53426;55.872;37.462;2023-01-25T07:16:07;100609.44;;;0.56;64.01
66385;BME280;53426;55.872;37.462;2023-01-25T07:18:33;100622.03;;;0.72;63.58
66385;BME280;53426;55.872;37.462;2023-01-25T07:21:14;100603.91;;;0.68;63.69
66385;BME280;53426;55.872;37.462;2023-01-25T07:23:41;100587.41;;;0.67;63.53
66385;BME280;53426;55.872;37.462;2023-01-25T07:26:17;100611.72;;;0.99;62.80
66385;BME280;53426;55.872;37.462;2023-01-25T07:28:44;100599.63;;;0.98;62.37
66385;BME280;53426;55.872;37.462;2023-01-25T07:31:10;100607.06;;;1.10;62.50
66385;BME280;53426;55.872;37.462;2023-01-25T07:33:36;100606.19;;;1.11;62.15
66385;BME280;53426;55.872;37.462;2023-01-25T07:36:03;100594.44;;;0.96;62.79
66385;BME280;53426;55.872;37.462;2023-01-25T07:38:29;100608.94;;;1.06;62.43
66385;BME280;53426;55.872;37.462;2023-01-25T07:40:55;100595.44;;;0.92;62.53
66385;BME280;53426;55.872;37.462;2023-01-25T07:43:22;100599.53;;;1.01;62.69
66385;BME280;53426;55.872;37.462;2023-01-25T07:45:52;100609.84;;;1.04;62.98
66385;BME280;53426;55.872;37.462;2023-01-25T07:48:19;100608.75;;;1.12;62.63
66385;BME280;53426;55.872;37.462;2023-01-25T07:50:45;100615.72;;;1.12;62.77
66385;BME280;53426;55.872;37.462;2023-01-25T07:53:15;100609.09;;;1.00;63.13
66385;BME280;53426;55.872;37.462;2023-01-25T07:55:42;100615.25;;;0.98;63.29
66385;BME280;53426;55.872;37.462;2023-01-25T07:58:10;100598.94;;;0.91;63.28
66385;BME280;53426;55.872;37.462;2023-01-25T08:00:42;100604.16;;;0.91;63.46
66385;BME280;53426;55.872;37.462;2023-01-25T08:03:07;100607.53;;;0.93;63.67
66385;BME280;53426;55.872;37.462;2023-01-25T08:05:56;100585.94;;;0.90;63.75
66385;BME280;53426;55.872;37.462;2023-01-25T08:08:21;100614.75;;;0.85;64.26
66385;BME280;53426;55.872;37.462;2023-01-25T08:10:47;100597.53;;;0.78;64.15
66385;BME280;53426;55.872;37.462;2023-01-25T08:13:14;100598.38;;;0.80;63.98
66385;BME280;53426;55.872;37.462;2023-01-25T08:15:52;100613.63;;;0.94;64.32
66385;BME280;53426;55.872;37.462;2023-01-25T08:18:24;100612.00;;;0.90;64.00
66385;BME280;53426;55.872;37.462;2023-01-25T08:20:50;100601.88;;;0.79;64.33
66385;BME280;53426;55.872;37.462;2023-01-25T08:26:44;100578.28;;;0.83;64.18
66385;BME280;53426;55.872;37.462;2023-01-25T08:29:16;100593.19;;;1.09;63.93
66385;BME280;53426;55.872;37.462;2023-01-25T08:31:42;100545.25;;;0.84;63.69
66385;BME280;53426;55.872;37.462;2023-01-25T08:34:10;100572.72;;;0.96;63.64
66385;BME280;53426;55.872;37.462;2023-01-25T08:36:36;100568.44;;;0.93;63.90
66385;BME280;53426;55.872;37.462;2023-01-25T08:39:07;100596.91;;;1.01;64.24
66385;BME280;53426;55.872;37.462;2023-01-25T08:41:38;100567.97;;;0.79;64.50
66385;BME280;53426;55.872;37.462;2023-01-25T08:44:04;100591.28;;;0.85;64.45
66385;BME280;53426;55.872;37.462;2023-01-25T08:46:32;100580.38;;;1.02;64.50
66385;BME280;53426;55.872;37.462;2023-01-25T08:49:00;100581.59;;;1.19;63.89
66385;BME280;53426;55.872;37.462;2023-01-25T08:51:30;100573.00;;;1.16;63.70
66385;BME280;53426;55.872;37.462;2023-01-25T08:54:01;100564.63;;;1.05;63.90
66385;BME280;53426;55.872;37.462;2023-01-25T08:56:27;100557.84;;;0.99;63.78
66385;BME280;53426;55.872;37.462;2023-01-25T08:58:56;100557.59;;;1.08;63.66
66385;BME280;53426;55.872;37.462;2023-01-25T09:01:21;100552.28;;;1.11;63.66
66385;BME280;53426;55.872;37.462;2023-01-25T09:03:49;100552.38;;;1.08;63.50
66385;BME280;53426;55.872;37.462;2023-01-25T09:06:16;100557.41;;;1.14;63.72
66385;BME280;53426;55.872;37.462;2023-01-25T09:08:42;100547.94;;;1.10;63.71
66385;BME280;53426;55.872;37.462;2023-01-25T09:11:14;100551.44;;;1.09;64.17
66385;BME280;53426;55.872;37.462;2023-01-25T09:13:40;100550.78;;;1.03;63.74
66385;BME280;53426;55.872;37.462;2023-01-25T09:16:12;100535.00;;;1.07;63.86
66385;BME280;53426;55.872;37.462;2023-01-25T09:18:40;100536.59;;;1.13;64.17
66385;BME280;53426;55.872;37.462;2023-01-25T09:21:16;100534.59;;;1.21;63.96
66385;BME280;53426;55.872;37.462;2023-01-25T09:23:43;100504.06;;;0.95;63.56
66385;BME280;53426;55.872;37.462;2023-01-25T09:26:10;100519.22;;;0.82;64.24
66385;BME280;53426;55.872;37.462;2023-01-25T09:28:36;100530.31;;;0.89;64.34
66385;BME280;53426;55.872;37.462;2023-01-25T09:31:06;100517.41;;;0.84;64.81
66385;BME280;53426;55.872;37.462;2023-01-25T09:33:59;100511.84;;;0.97;64.52
66385;BME280;53426;55.872;37.462;2023-01-25T09:36:25;100504.50;;;0.81;64.89
66385;BME280;53426;55.872;37.462;2023-01-25T09:38:54;100505.06;;;0.91;65.04
66385;BME280;53426;55.872;37.462;2023-01-25T09:44:36;100494.59;;;0.93;64.87
66385;BME280;53426;55.872;37.462;2023-01-25T09:47:31;100485.50;;;1.06;65.15
66385;BME280;53426;55.872;37.462;2023-01-25T09:55:38;100471.56;;;0.77;65.44
66385;BME280;53426;55.872;37.462;2023-01-25T09:58:11;100475.59;;;0.60;65.58
66385;BME280;53426;55.872;37.462;2023-01-25T10:00:49;100457.28;;;0.61;66.03
66385;BME280;53426;55.872;37.462;2023-01-25T10:05:52;100467.78;;;0.58;65.49
66385;BME280;53426;55.872;37.462;2023-01-25T10:11:03;100456.41;;;0.61;65.32
66385;BME280;53426;55.872;37.462;2023-01-25T10:13:34;100465.34;;;0.52;65.60
66385;BME280;53426;55.872;37.462;2023-01-25T10:16:12;100448.72;;;0.27;66.24
66385;BME280;53426;55.872;37.462;2023-01-25T10:26:55;100461.63;;;0.61;65.42
66385;BME280;53426;55.872;37.462;2023-01-25T10:29:32;100468.19;;;0.74;65.01
66385;BME280;53426;55.872;37.462;2023-01-25T10:32:13;100461.00;;;0.82;65.15
66385;BME280;53426;55.872;37.462;2023-01-25T10:34:48;100453.63;;;0.96;65.17
66385;BME280;53426;55.872;37.462;2023-01-25T10:37:21;100446.34;;;0.78;65.03
66385;BME280;53426;55.872;37.462;2023-01-25T10:39:56;100445.63;;;0.73;65.33
66385;BME280;53426;55.872;37.462;2023-01-25T10:42:25;100439.66;;;0.69;65.91
66385;BME280;53426;55.872;37.462;2023-01-25T10:44:54;100435.84;;;0.52;66.22
66385;BME280;53426;55.872;37.462;2023-01-25T10:47:28;100437.88;;;0.42;66.51
66385;BME280;53426;55.872;37.462;2023-01-25T10:49:55;100423.78;;;0.49;66.19
66385;BME280;53426;55.872;37.462;2023-01-25T10:52:23;100422.19;;;0.44;66.62
66385;BME280;53426;55.872;37.462;2023-01-25T10:55:19;100428.81;;;0.24;66.68
66385;BME280;53426;55.872;37.462;2023-01-25T10:57:49;100426.59;;;0.11;67.04
66385;BME280;53426;55.872;37.462;2023-01-25T11:02:54;100399.03;;;0.02;67.18
66385;BME280;53426;55.872;37.462;2023-01-25T11:05:32;100413.22;;;0.23;66.81
66385;BME280;53426;55.872;37.462;2023-01-25T11:10:44;100391.75;;;0.15;67.15
66385;BME280;53426;55.872;37.462;2023-01-25T11:13:27;100397.53;;;0.26;67.20
66385;BME280;53426;55.872;37.462;2023-01-25T11:18:34;100410.25;;;0.36;66.81
66385;BME280;53426;55.872;37.462;2023-01-25T11:21:11;100404.34;;;0.30;66.94
66385;BME280;53426;55.872;37.462;2023-01-25T11:23:40;100398.50;;;0.22;66.70
66385;BME280;53426;55.872;37.462;2023-01-25T11:26:18;100373.56;;;0.13;66.98
66385;BME280;53426;55.872;37.462;2023-01-25T11:31:36;100383.53;;;-0.01;66.73
66385;BME280;53426;55.872;37.462;2023-01-25T11:34:11;100392.06;;;0.04;67.32
66385;BME280;53426;55.872;37.462;2023-01-25T11:39:28;100386.22;;;0.27;65.90
66385;BME280;53426;55.872;37.462;2023-01-25T11:50:38;100388.25;;;0.45;64.33
66385;BME280;53426;55.872;37.462;2023-01-25T12:01:30;100371.94;;;0.38;62.70
66385;BME280;53426;55.872;37.462;2023-01-25T12:06:56;100373.78;;;0.36;63.06
66385;BME280;53426;55.872;37.462;2023-01-25T12:09:48;100375.88;;;0.24;63.18
66385;BME280;53426;55.872;37.462;2023-01-25T12:12:41;100379.44;;;0.21;63.59
66385;BME280;53426;55.872;37.462;2023-01-25T12:35:29;100349.16;;;0.47;62.94
66385;BME280;53426;55.872;37.462;2023-01-25T12:38:11;100329.72;;;0.27;62.73
66385;BME280;53426;55.872;37.462;2023-01-25T12:40:56;100346.75;;;0.39;62.68
66385;BME280;53426;55.872;37.462;2023-01-25T12:43:39;100327.59;;;0.41;62.46
66385;BME280;53426;55.872;37.462;2023-01-25T12:46:29;100347.38;;;0.49;62.72
66385;BME280;53426;55.872;37.462;2023-01-25T12:49:02;100321.56;;;0.39;62.69
66385;BME280;53426;55.872;37.462;2023-01-25T12:51:35;100316.34;;;0.39;62.12
66385;BME280;53426;55.872;37.462;2023-01-25T12:54:10;100332.34;;;0.57;61.89
66385;BME280;53426;55.872;37.462;2023-01-25T13:05:41;100332.81;;;0.41;62.18
66385;BME280;53426;55.872;37.462;2023-01-25T13:08:18;100329.13;;;0.49;62.25
66385;BME280;53426;55.872;37.462;2023-01-25T13:10:52;100327.81;;;0.34;62.95
66385;BME280;53426;55.872;37.462;2023-01-25T13:13:26;100306.94;;;0.35;63.05
66385;BME280;53426;55.872;37.462;2023-01-25T13:15:53;100317.06;;;0.45;62.55
66385;BME280;53426;55.872;37.462;2023-01-25T13:20:53;100309.34;;;0.41;62.36
66385;BME280;53426;55.872;37.462;2023-01-25T13:23:30;100294.53;;;0.44;62.88
66385;BME280;53426;55.872;37.462;2023-01-25T13:28:52;100270.66;;;0.29;63.15
66385;BME280;53426;55.872;37.462;2023-01-25T13:37:16;100269.38;;;0.15;63.82
66385;BME280;53426;55.872;37.462;2023-01-25T13:39:53;100258.47;;;0.02;64.28
66385;BME280;53426;55.872;37.462;2023-01-25T13:42:25;100244.50;;;0.05;64.65
66385;BME280;53426;55.872;37.462;2023-01-25T13:44:55;100247.47;;;-0.08;65.02
66385;BME280;53426;55.872;37.462;2023-01-25T13:47:25;100244.91;;;-0.09;64.72
66385;BME280;53426;55.872;37.462;2023-01-25T13:52:20;100232.38;;;-0.26;65.69
66385;BME280;53426;55.872;37.462;2023-01-25T13:54:54;100246.97;;;-0.20;65.25
66385;BME280;53426;55.872;37.462;2023-01-25T13:57:30;100245.94;;;-0.15;65.67
66385;BME280;53426;55.872;37.462;2023-01-25T14:00:02;100227.31;;;-0.30;66.20
66385;BME280;53426;55.872;37.462;2023-01-25T14:02:32;100227.13;;;-0.23;66.03
66385;BME280;53426;55.872;37.462;2023-01-25T14:04:59;100221.41;;;-0.35;66.15
66385;BME280;53426;55.872;37.462;2023-01-25T14:07:33;100230.63;;;-0.25;66.22
66385;BME280;53426;55.872;37.462;2023-01-25T14:10:08;100242.78;;;-0.26;66.69
66385;BME280;53426;55.872;37.462;2023-01-25T14:12:40;100241.22;;;-0.31;66.47
66385;BME280;53426;55.872;37.462;2023-01-25T14:17:42;100234.84;;;-0.21;66.30
66385;BME280;53426;55.872;37.462;2023-01-25T14:20:20;100204.06;;;-0.36;66.47
66385;BME280;53426;55.872;37.462;2023-01-25T14:22:51;100207.22;;;-0.25;66.19
66385;BME280;53426;55.872;37.462;2023-01-25T14:25:18;100227.50;;;-0.07;66.18
66385;BME280;53426;55.872;37.462;2023-01-25T14:27:55;100233.38;;;-0.01;66.54
66385;BME280;53426;55.872;37.462;2023-01-25T14:35:47;100222.69;;;0.09;66.10
66385;BME280;53426;55.872;37.462;2023-01-25T14:38:40;100218.63;;;0.00;66.57
66385;BME280;53426;55.872;37.462;2023-01-25T14:41:31;100228.59;;;0.14;66.47
66385;BME280;53426;55.872;37.462;2023-01-25T14:44:12;100224.22;;;0.16;66.19
66385;BME280;53426;55.872;37.462;2023-01-25T14:46:40;100240.94;;;0.07;66.14
66385;BME280;53426;55.872;37.462;2023-01-25T14:54:52;100232.06;;;0.14;66.46
66385;BME280;53426;55.872;37.462;2023-01-25T14:57:36;100242.66;;;0.08;66.94
66385;BME280;53426;55.872;37.462;2023-01-25T15:00:25;100242.44;;;0.16;66.69
66385;BME280;53426;55.872;37.462;2023-01-25T15:02:58;100236.22;;;0.20;66.95
66385;BME280;53426;55.872;37.462;2023-01-25T15:05:27;100213.91;;;0.11;66.57
66385;BME280;53426;55.872;37.462;2023-01-25T15:10:27;100215.56;;;0.15;66.31
66385;BME280;53426;55.872;37.462;2023-01-25T15:15:25;100195.69;;;0.11;66.70
66385;BME280;53426;55.872;37.462;2023-01-25T15:17:54;100192.38;;;0.06;67.20
66385;BME280;53426;55.872;37.462;2023-01-25T15:20:40;100199.28;;;0.07;66.86